createdAt,value
2024-03-06T00:01:20.026Z,23.90
2024-03-06T00:03:48.483Z,25.42
2024-03-06T00:06:18.208Z,25.90
2024-03-06T00:08:46.550Z,25.92
2024-03-06T00:11:15.249Z,21.13
2024-03-06T00:13:43.842Z,27.38
2024-03-06T00:16:12.239Z,29.85
2024-03-06T00:18:41.310Z,28.95
2024-03-06T00:21:10.827Z,30.50
2024-03-06T00:23:40.558Z,28.67
2024-03-06T00:26:09.054Z,29.85
2024-03-06T00:28:37.499Z,27.73
2024-03-06T00:31:07.951Z,23.92
2024-03-06T00:33:36.320Z,28.25
2024-03-06T00:36:04.968Z,23.35
2024-03-06T00:38:33.309Z,31.75
2024-03-06T00:41:03.142Z,30.42
2024-03-06T00:43:32.442Z,31.73
2024-03-06T00:46:01.706Z,25.23
2024-03-06T00:48:30.043Z,26.73
2024-03-06T00:50:58.460Z,31.25
2024-03-06T00:53:26.837Z,31.77
2024-03-06T00:55:55.247Z,27.33
2024-03-06T00:58:24.974Z,24.13
2024-03-06T01:00:53.344Z,27.15
2024-03-06T01:03:21.793Z,25.73
2024-03-06T01:05:50.175Z,23.90
2024-03-06T01:08:19.209Z,26.15
2024-03-06T01:10:47.001Z,30.30
2024-03-06T01:13:15.386Z,26.35
2024-03-06T01:15:45.111Z,29.60
2024-03-06T01:18:13.738Z,33.95
2024-03-06T01:20:42.329Z,29.95
2024-03-06T01:23:10.877Z,26.80
2024-03-06T01:25:39.326Z,26.83
2024-03-06T01:28:08.338Z,30.67
2024-03-06T01:30:36.707Z,25.17
2024-03-06T01:33:07.548Z,24.13
2024-03-06T01:35:36.080Z,28.95
2024-03-06T01:38:04.490Z,27.23
2024-03-06T01:40:33.243Z,31.98
2024-03-06T01:43:02.359Z,28.58
2024-03-06T01:45:32.286Z,30.80
2024-03-06T01:48:00.714Z,27.45
2024-03-06T01:50:30.597Z,31.63
2024-03-06T01:52:59.263Z,26.35
2024-03-06T01:55:27.802Z,32.42
2024-03-06T01:57:56.506Z,30.88
2024-03-06T02:00:25.734Z,31.17
2024-03-06T02:02:54.557Z,27.33
2024-03-06T02:05:23.158Z,29.98
2024-03-06T02:07:55.840Z,30.48
2024-03-06T02:10:24.281Z,29.05
2024-03-06T02:12:54.032Z,29.33
2024-03-06T02:15:22.589Z,26.40
2024-03-06T02:17:52.141Z,31.77
2024-03-06T02:20:26.235Z,31.02
2024-03-06T02:22:54.739Z,24.45
2024-03-06T02:25:23.175Z,27.10
2024-03-06T02:27:51.522Z,27.70
2024-03-06T02:30:22.799Z,28.63
2024-03-06T02:32:51.167Z,30.08
2024-03-06T02:35:19.988Z,28.52
2024-03-06T02:37:49.790Z,26.65
2024-03-06T02:40:18.587Z,24.27
2024-03-06T02:42:47.076Z,24.00
2024-03-06T02:45:15.492Z,23.73
2024-03-06T02:47:44.229Z,25.48
2024-03-06T02:50:12.945Z,27.40
2024-03-06T02:52:42.134Z,26.00
2024-03-06T02:55:11.990Z,26.23
2024-03-06T02:57:40.389Z,22.90
2024-03-06T03:00:14.418Z,23.35
2024-03-06T03:02:43.120Z,20.52
2024-03-06T03:05:11.773Z,21.90
2024-03-06T03:07:40.390Z,21.17
2024-03-06T03:10:12.131Z,24.52
2024-03-06T03:12:41.349Z,24.30
2024-03-06T03:15:10.944Z,24.38
2024-03-06T03:17:39.336Z,27.08
2024-03-06T03:20:12.402Z,26.00
2024-03-06T03:22:42.436Z,33.05
2024-03-06T03:25:13.715Z,21.85
2024-03-06T03:27:42.779Z,32.50
2024-03-06T03:30:12.865Z,24.73
2024-03-06T03:32:41.717Z,24.02
2024-03-06T03:35:10.887Z,27.77
2024-03-06T03:37:39.644Z,26.55
2024-03-06T03:40:12.678Z,28.70
2024-03-06T03:42:41.427Z,30.77
2024-03-06T03:45:10.878Z,29.65
2024-03-06T03:47:39.885Z,32.75
2024-03-06T03:50:11.496Z,33.75
2024-03-06T03:52:43.518Z,30.27
2024-03-06T03:55:13.622Z,28.15
2024-03-06T03:57:42.009Z,31.83
2024-03-06T04:00:15.076Z,27.15
2024-03-06T04:02:43.700Z,45.15
2024-03-06T04:05:12.578Z,29.30
2024-03-06T04:07:41.106Z,30.67
2024-03-06T04:10:13.097Z,30.58
2024-03-06T04:12:43.009Z,31.00
2024-03-06T04:15:12.274Z,27.92
2024-03-06T04:17:42.298Z,32.10
2024-03-06T04:20:14.273Z,30.02
2024-03-06T04:22:42.766Z,32.95
2024-03-06T04:25:12.008Z,33.90
2024-03-06T04:27:40.486Z,24.90
2024-03-06T04:30:11.890Z,28.08
2024-03-06T04:32:40.752Z,30.40
2024-03-06T04:35:11.477Z,27.05
2024-03-06T04:37:40.466Z,29.75
2024-03-06T04:40:11.399Z,27.25
2024-03-06T04:42:40.065Z,30.30
2024-03-06T04:45:14.567Z,30.50
2024-03-06T04:47:43.079Z,28.58
2024-03-06T04:50:13.359Z,29.45
2024-03-06T04:52:42.294Z,29.33
2024-03-06T04:55:12.527Z,26.60
2024-03-06T04:57:42.958Z,25.25
2024-03-06T05:00:15.822Z,23.17
2024-03-06T05:58:10.258Z,21.25
2024-03-06T06:00:40.814Z,20.27
2024-03-06T06:03:12.952Z,22.25
2024-03-06T06:05:43.097Z,19.30
2024-03-06T06:08:11.605Z,20.75
2024-03-06T06:10:40.103Z,24.08
2024-03-06T06:13:08.591Z,19.20
2024-03-06T06:15:36.967Z,18.80
2024-03-06T06:18:06.268Z,19.35
2024-03-06T06:20:34.865Z,20.73
2024-03-06T06:23:05.058Z,19.02
2024-03-06T06:25:33.422Z,18.13
2024-03-06T06:28:01.904Z,16.20
2024-03-06T06:30:30.384Z,16.60
2024-03-06T06:32:59.070Z,21.52
2024-03-06T06:35:28.656Z,18.33
2024-03-06T06:37:57.098Z,19.88
2024-03-06T06:40:26.833Z,19.98
2024-03-06T06:42:55.217Z,20.45
2024-03-06T06:45:24.318Z,20.20
2024-03-06T06:47:54.491Z,22.90
2024-03-06T06:50:27.134Z,21.90
2024-03-06T06:52:56.042Z,16.73
2024-03-06T06:55:25.797Z,20.95
2024-03-06T06:57:56.751Z,18.33
2024-03-06T07:00:26.421Z,19.58
2024-03-06T07:02:54.849Z,20.02
2024-03-06T07:05:23.457Z,18.58
2024-03-06T07:07:54.885Z,18.90
2024-03-06T07:10:24.731Z,20.23
2024-03-06T07:12:53.228Z,22.88
2024-03-06T07:15:23.123Z,18.40
2024-03-06T07:17:51.635Z,16.83
2024-03-06T07:20:20.337Z,17.58
2024-03-06T07:22:48.786Z,17.73
2024-03-06T07:25:17.539Z,19.45
2024-03-06T07:27:45.904Z,23.90
2024-03-06T07:30:15.618Z,20.00
2024-03-06T07:32:45.372Z,22.25
2024-03-06T07:35:14.600Z,22.52
2024-03-06T07:37:45.976Z,22.45
2024-03-06T07:40:14.843Z,19.85
2024-03-06T07:42:43.240Z,24.05
2024-03-06T07:45:12.602Z,21.20
2024-03-06T07:47:42.629Z,26.15
2024-03-06T07:50:13.889Z,21.27
2024-03-06T07:52:42.360Z,25.80
2024-03-06T07:55:10.855Z,17.48
2024-03-06T07:57:39.345Z,28.90
2024-03-06T08:00:15.825Z,17.92
2024-03-06T08:02:45.171Z,19.13
2024-03-06T08:05:15.289Z,21.08
2024-03-06T08:07:44.129Z,21.42
2024-03-06T08:10:14.432Z,21.40
2024-03-06T08:12:43.840Z,21.42
2024-03-06T08:15:14.217Z,17.65
2024-03-06T08:17:45.444Z,18.67
2024-03-06T08:20:15.838Z,17.95
2024-03-06T08:22:45.327Z,20.75
2024-03-06T08:25:15.128Z,17.48
2024-03-06T08:27:44.521Z,20.10
2024-03-06T08:30:14.185Z,16.75
2024-03-06T08:32:45.205Z,18.83
2024-03-06T08:35:21.626Z,19.60
2024-03-06T08:37:50.746Z,20.38
2024-03-06T08:40:20.521Z,28.90
2024-03-06T08:42:50.177Z,26.92
2024-03-06T08:45:19.625Z,18.13
2024-03-06T08:47:49.844Z,17.55
2024-03-06T08:50:19.813Z,21.20
2024-03-06T08:52:49.052Z,20.48
2024-03-06T08:55:17.709Z,20.15
2024-03-06T08:57:46.205Z,21.15
2024-03-06T09:00:16.537Z,21.27
2024-03-06T09:02:45.189Z,23.25
2024-03-06T09:05:14.999Z,21.30
2024-03-06T09:07:45.023Z,21.58
2024-03-06T09:10:14.174Z,22.67
2024-03-06T09:12:43.479Z,21.73
2024-03-06T09:15:13.258Z,21.13
2024-03-06T09:17:43.183Z,22.55
2024-03-06T09:20:13.906Z,24.10
2024-03-06T09:22:45.108Z,24.55
2024-03-06T09:25:16.453Z,19.35
2024-03-06T09:27:46.504Z,21.08
2024-03-06T09:30:17.018Z,19.15
2024-03-06T09:32:46.018Z,23.75
2024-03-06T09:35:18.829Z,19.85
2024-03-06T09:37:49.497Z,22.25
2024-03-06T09:40:25.760Z,22.80
2024-03-06T09:42:54.553Z,19.80
2024-03-06T09:45:23.407Z,21.30
2024-03-06T09:47:54.269Z,19.95
2024-03-06T09:50:26.954Z,18.25
2024-03-06T09:52:58.577Z,20.00
2024-03-06T09:55:28.803Z,18.40
2024-03-06T09:57:57.481Z,20.92
2024-03-06T10:00:27.682Z,18.58
2024-03-06T10:03:01.831Z,18.67
2024-03-06T10:05:31.869Z,18.85
2024-03-06T10:08:05.353Z,18.02
2024-03-06T10:10:34.080Z,14.93
2024-03-06T10:13:02.642Z,14.60
2024-03-06T10:15:31.231Z,15.65
2024-03-06T10:18:19.329Z,16.52
2024-03-06T10:20:48.230Z,18.75
2024-03-06T10:23:19.491Z,17.20
2024-03-06T10:25:52.194Z,18.08
2024-03-06T10:28:23.420Z,20.98
2024-03-06T10:30:53.301Z,18.05
2024-03-06T10:33:22.357Z,15.13
2024-03-06T10:35:51.272Z,15.77
2024-03-06T10:38:23.991Z,18.55
2024-03-06T10:40:55.307Z,16.88
2024-03-06T10:43:25.420Z,17.65
2024-03-06T10:46:01.611Z,16.73
2024-03-06T10:48:31.464Z,15.77
2024-03-06T10:51:04.286Z,15.75
2024-03-06T10:53:36.334Z,13.85
2024-03-06T10:56:08.078Z,35.65
2024-03-06T10:58:37.206Z,15.40
2024-03-06T11:01:07.522Z,16.08
2024-03-06T11:03:37.196Z,16.13
2024-03-06T11:06:07.126Z,15.10
2024-03-06T11:08:37.816Z,13.32
2024-03-06T11:11:26.910Z,16.13
2024-03-06T11:13:59.506Z,16.35
2024-03-06T11:16:35.284Z,13.93
2024-03-06T11:19:10.889Z,14.80
2024-03-06T11:21:49.815Z,14.57
2024-03-06T11:24:22.196Z,18.50
2024-03-06T11:26:53.048Z,15.35
2024-03-06T11:29:23.754Z,16.00
2024-03-06T11:32:09.422Z,16.48
2024-03-06T11:34:39.467Z,14.18
2024-03-06T11:37:11.172Z,14.02
2024-03-06T11:39:43.008Z,14.50
2024-03-06T11:42:12.897Z,13.65
2024-03-06T11:44:57.663Z,13.80
2024-03-06T11:47:26.386Z,16.35
2024-03-06T11:49:55.988Z,14.85
2024-03-06T11:52:24.923Z,19.10
2024-03-06T11:54:55.819Z,15.55
2024-03-06T11:57:25.055Z,15.55
2024-03-06T11:59:56.453Z,16.20
2024-03-06T12:02:24.998Z,20.98
2024-03-06T12:04:55.005Z,18.23
2024-03-06T12:07:23.968Z,17.27
2024-03-06T12:09:55.973Z,18.17
2024-03-06T12:12:24.548Z,21.98
2024-03-06T12:15:01.973Z,18.42
2024-03-06T12:17:30.624Z,18.67
2024-03-06T12:19:59.199Z,22.35
2024-03-06T12:22:28.588Z,19.15
2024-03-06T12:25:05.622Z,17.95
2024-03-06T12:27:36.946Z,16.38
2024-03-06T12:30:14.216Z,19.35
2024-03-06T12:32:43.171Z,17.52
2024-03-06T12:35:11.953Z,19.67
2024-03-06T12:37:40.921Z,17.58
2024-03-06T12:40:14.664Z,19.63
2024-03-06T12:42:43.300Z,16.52
2024-03-06T12:45:12.990Z,18.10
2024-03-06T12:47:43.813Z,19.27
2024-03-06T12:50:13.137Z,16.00
2024-03-06T12:52:41.646Z,20.40
2024-03-06T12:55:11.540Z,16.92
2024-03-06T12:57:41.287Z,16.38
2024-03-06T13:00:17.163Z,17.10
2024-03-06T13:02:46.383Z,18.83
2024-03-06T13:05:15.615Z,23.33
2024-03-06T13:07:45.597Z,20.40
2024-03-06T13:10:15.576Z,19.35
2024-03-06T13:12:44.003Z,17.80
2024-03-06T13:15:12.781Z,20.48
2024-03-06T13:17:42.251Z,16.55
2024-03-06T13:20:13.123Z,17.67
2024-03-06T13:22:42.507Z,16.98
2024-03-06T13:25:11.193Z,22.40
2024-03-06T13:27:40.960Z,19.17
2024-03-06T13:30:11.450Z,19.08
2024-03-06T13:32:39.933Z,20.67
2024-03-06T13:35:13.364Z,18.35
2024-03-06T13:37:41.997Z,15.27
2024-03-06T13:40:14.645Z,19.88
2024-03-06T13:42:45.297Z,20.02
2024-03-06T13:45:13.927Z,17.27
2024-03-06T13:47:43.805Z,20.52
2024-03-06T13:50:14.349Z,14.68
2024-03-06T13:52:42.984Z,18.40
2024-03-06T13:55:12.105Z,19.13
2024-03-06T13:57:42.955Z,22.00
2024-03-06T14:00:18.684Z,17.88
2024-03-06T14:02:48.691Z,19.00
2024-03-06T14:05:17.688Z,16.20
2024-03-06T14:07:46.131Z,16.90
2024-03-06T14:10:15.097Z,22.08
2024-03-06T14:12:43.489Z,17.88
2024-03-06T14:15:14.456Z,16.65
2024-03-06T14:17:43.629Z,15.05
2024-03-06T14:20:14.016Z,16.02
2024-03-06T14:22:43.130Z,17.25
2024-03-06T14:25:11.895Z,14.18
2024-03-06T14:27:40.617Z,14.43
2024-03-06T14:30:11.654Z,15.30
2024-03-06T14:32:41.621Z,14.85
2024-03-06T14:35:11.461Z,18.40
2024-03-06T14:37:40.723Z,15.98
2024-03-06T14:40:11.267Z,21.80
2024-03-06T14:42:39.790Z,16.48
2024-03-06T14:45:11.072Z,16.70
2024-03-06T14:47:40.938Z,14.13
2024-03-06T14:50:10.437Z,16.98
2024-03-06T14:52:39.249Z,16.17
2024-03-06T14:55:10.153Z,17.23
2024-03-06T14:57:38.747Z,17.35
2024-03-06T15:00:09.851Z,13.48
2024-03-06T15:02:42.006Z,19.40
2024-03-06T15:05:13.322Z,15.88
2024-03-06T15:07:41.904Z,14.25
2024-03-06T15:10:11.832Z,21.15
2024-03-06T15:12:40.253Z,15.57
2024-03-06T15:15:10.326Z,14.13
2024-03-06T15:17:41.716Z,13.68
2024-03-06T15:20:14.122Z,14.40
2024-03-06T15:22:42.497Z,13.98
2024-03-06T15:25:11.608Z,14.90
2024-03-06T15:27:40.546Z,15.85
2024-03-06T15:30:12.248Z,16.50
2024-03-06T15:32:42.494Z,14.18
2024-03-06T15:35:13.083Z,17.25
2024-03-06T15:37:41.559Z,16.58
2024-03-06T15:40:12.255Z,12.13
2024-03-06T15:42:41.515Z,15.50
2024-03-06T15:45:11.348Z,17.30
2024-03-06T15:47:43.354Z,15.23
2024-03-06T15:50:12.554Z,15.68
2024-03-06T15:52:41.687Z,17.17
2024-03-06T15:55:11.583Z,18.70
2024-03-06T15:57:41.313Z,13.38
2024-03-06T16:00:14.850Z,15.73
2024-03-06T16:02:45.351Z,14.20
2024-03-06T16:05:13.921Z,15.80
2024-03-06T16:07:47.821Z,16.35
2024-03-06T16:10:24.219Z,18.73
2024-03-06T16:12:55.707Z,13.10
2024-03-06T16:15:26.437Z,13.30
2024-03-06T16:17:56.273Z,15.68
2024-03-06T16:20:24.824Z,16.05
2024-03-06T16:22:53.224Z,16.58
2024-03-06T16:25:21.667Z,13.43
2024-03-06T16:27:50.034Z,14.95
2024-03-06T16:30:18.577Z,15.32
2024-03-06T16:32:47.056Z,16.05
2024-03-06T16:35:17.078Z,13.70
2024-03-06T16:37:45.438Z,17.88
2024-03-06T16:40:14.026Z,14.73
2024-03-06T16:42:42.439Z,13.68
2024-03-06T16:45:13.365Z,15.05
2024-03-06T16:47:41.846Z,16.95
2024-03-06T16:50:12.528Z,14.27
2024-03-06T16:52:42.643Z,14.20
2024-03-06T16:55:11.486Z,16.17
2024-03-06T16:57:40.184Z,19.48
2024-03-06T17:00:11.153Z,13.52
2024-03-06T17:02:39.647Z,15.13
2024-03-06T17:05:11.755Z,15.02
2024-03-06T17:07:43.235Z,12.40
2024-03-06T17:10:12.409Z,13.73
2024-03-06T17:12:40.867Z,16.25
2024-03-06T17:15:11.692Z,17.75
2024-03-06T17:17:40.129Z,16.63
2024-03-06T17:20:11.133Z,24.10
2024-03-06T17:22:41.058Z,17.08
2024-03-06T17:25:10.405Z,18.45
2024-03-06T17:27:39.155Z,18.17
2024-03-06T17:30:10.452Z,18.65
2024-03-06T17:32:39.007Z,16.88
2024-03-06T17:35:09.673Z,16.20
2024-03-06T17:37:38.867Z,15.90
2024-03-06T17:40:12.278Z,16.35
2024-03-06T17:42:41.487Z,19.08
2024-03-06T17:45:11.744Z,22.70
2024-03-06T17:47:41.768Z,18.02
2024-03-06T17:50:15.033Z,18.38
2024-03-06T17:52:43.450Z,16.05
2024-03-06T17:55:13.538Z,16.63
2024-03-06T17:57:46.988Z,17.38
2024-03-06T18:00:17.101Z,17.15
2024-03-06T18:02:46.261Z,17.02
2024-03-06T18:05:14.848Z,17.08
2024-03-06T18:07:46.352Z,19.05
2024-03-06T18:10:18.111Z,14.95
2024-03-06T18:12:46.510Z,18.23
2024-03-06T18:15:15.635Z,19.73
2024-03-06T18:17:44.336Z,17.02
2024-03-06T18:20:14.247Z,16.50
2024-03-06T18:22:42.922Z,19.38
2024-03-06T18:25:12.044Z,19.48
2024-03-06T18:27:42.172Z,16.13
2024-03-06T18:30:12.963Z,17.38
2024-03-06T18:32:41.386Z,14.45
2024-03-06T18:35:10.900Z,16.92
2024-03-06T18:37:39.334Z,15.35
2024-03-06T18:40:09.026Z,15.48
2024-03-06T18:42:37.573Z,15.48
2024-03-06T18:45:10.303Z,16.00
2024-03-06T18:47:39.358Z,13.65
2024-03-06T18:50:09.354Z,18.00
2024-03-06T18:52:38.249Z,17.23
2024-03-06T18:55:08.417Z,12.95
2024-03-06T18:57:36.822Z,16.67
2024-03-06T19:00:08.351Z,12.15
2024-03-06T19:02:37.088Z,14.45
2024-03-06T19:05:07.106Z,21.50
2024-03-06T19:07:36.040Z,16.77
2024-03-06T19:10:07.063Z,12.57
2024-03-06T19:12:35.639Z,14.68
2024-03-06T19:15:04.145Z,10.40
2024-03-06T19:17:34.108Z,16.08
2024-03-06T19:20:03.608Z,12.02
2024-03-06T19:22:32.435Z,14.07
2024-03-06T19:25:01.287Z,13.98
2024-03-06T19:27:30.302Z,14.18
2024-03-06T19:30:00.124Z,15.98
2024-03-06T19:32:39.222Z,14.65
2024-03-06T19:35:17.182Z,11.90
2024-03-06T19:37:45.759Z,11.20
2024-03-06T19:40:15.021Z,13.07
2024-03-06T19:42:45.163Z,10.93
2024-03-06T19:45:14.364Z,16.90
2024-03-06T19:47:43.694Z,15.57
2024-03-06T19:50:12.821Z,11.73
2024-03-06T19:52:47.739Z,13.93
2024-03-06T19:55:17.037Z,11.38
2024-03-06T19:57:46.173Z,15.10
2024-03-06T20:00:18.596Z,13.27
2024-03-06T20:02:48.312Z,13.35
2024-03-06T20:05:17.429Z,18.95
2024-03-06T20:07:47.602Z,12.57
2024-03-06T20:10:17.288Z,12.73
2024-03-06T20:12:46.374Z,14.05
2024-03-06T20:15:15.838Z,13.63
2024-03-06T20:17:44.894Z,13.40
2024-03-06T20:20:15.248Z,14.70
2024-03-06T20:22:43.987Z,14.40
2024-03-06T20:25:14.418Z,15.02
2024-03-06T20:27:43.498Z,13.70
2024-03-06T20:30:14.098Z,13.35
2024-03-06T20:32:43.170Z,15.40
2024-03-06T20:35:14.375Z,15.27
2024-03-06T20:37:44.153Z,15.63
2024-03-06T20:40:15.285Z,13.40
2024-03-06T20:42:44.061Z,14.88
2024-03-06T20:45:14.152Z,14.95
2024-03-06T20:47:43.960Z,14.77
2024-03-06T20:50:14.250Z,13.95
2024-03-06T20:52:44.239Z,15.32
2024-03-06T20:55:14.856Z,16.98
2024-03-06T20:57:44.213Z,20.15
2024-03-06T21:00:17.616Z,18.02
2024-03-06T21:02:46.175Z,15.50
2024-03-06T21:05:15.116Z,19.92
2024-03-06T21:07:45.690Z,16.48
2024-03-06T21:10:17.835Z,16.95
2024-03-06T21:12:49.626Z,18.13
2024-03-06T21:15:19.150Z,18.45
2024-03-06T21:17:48.204Z,24.58
2024-03-06T21:20:18.178Z,23.75
2024-03-06T21:22:47.484Z,17.00
2024-03-06T21:25:17.708Z,17.83
2024-03-06T21:27:46.566Z,18.33
2024-03-06T21:30:15.838Z,16.48
2024-03-06T21:32:44.808Z,19.85
2024-03-06T21:35:14.000Z,19.70
2024-03-06T21:37:42.561Z,17.77
2024-03-06T21:40:14.641Z,19.88
2024-03-06T21:42:46.637Z,17.27
2024-03-06T21:45:15.835Z,17.92
2024-03-06T21:47:44.392Z,19.42
2024-03-06T21:50:14.225Z,20.52
2024-03-06T21:52:43.486Z,19.98
2024-03-06T21:55:12.542Z,17.95
2024-03-06T21:57:40.887Z,18.63
2024-03-06T22:00:16.156Z,16.52
2024-03-06T22:02:44.606Z,15.40
2024-03-06T22:05:13.165Z,17.52
2024-03-06T22:07:41.634Z,20.73
2024-03-06T22:10:11.071Z,16.77
2024-03-06T22:12:39.674Z,15.98
2024-03-06T22:15:13.440Z,17.95
2024-03-06T22:17:41.780Z,17.20
2024-03-06T22:20:11.511Z,17.58
2024-03-06T22:22:39.906Z,16.45
2024-03-06T22:25:08.945Z,17.52
2024-03-06T22:27:39.730Z,17.58
2024-03-06T22:30:09.598Z,19.02
2024-03-06T22:32:39.449Z,19.17
2024-03-06T22:35:11.458Z,18.52
2024-03-06T22:37:40.251Z,16.65
2024-03-06T22:40:11.273Z,20.63
2024-03-06T22:42:39.631Z,19.65
2024-03-06T22:45:09.565Z,24.27
2024-03-06T22:47:39.283Z,20.25
2024-03-06T22:50:10.837Z,21.30
2024-03-06T22:52:39.321Z,17.67
2024-03-06T22:55:08.588Z,19.23
2024-03-06T22:57:37.130Z,22.00
2024-03-06T23:00:20.417Z,19.65
2024-03-06T23:02:50.721Z,18.95
2024-03-06T23:05:19.984Z,18.83
2024-03-06T23:07:48.455Z,19.80
2024-03-06T23:10:18.892Z,23.08
2024-03-06T23:12:47.915Z,17.92
2024-03-06T23:15:17.801Z,17.60
2024-03-06T23:17:51.749Z,18.00
2024-03-06T23:20:21.782Z,17.15
2024-03-06T23:22:50.539Z,16.08
2024-03-06T23:25:19.590Z,15.85
2024-03-06T23:27:49.339Z,16.83
2024-03-06T23:30:19.392Z,14.40
2024-03-06T23:32:50.540Z,16.02
2024-03-06T23:35:19.722Z,17.13
2024-03-06T23:37:48.420Z,12.68
2024-03-06T23:40:17.472Z,15.60
2024-03-06T23:42:47.890Z,14.30
2024-03-06T23:45:17.494Z,13.20
2024-03-06T23:47:48.600Z,12.57
2024-03-06T23:50:21.850Z,11.13
2024-03-06T23:52:50.829Z,10.52
2024-03-06T23:55:19.447Z,11.82
2024-03-06T23:57:48.037Z,11.15
